sensor_id;sensor_type;location;lat;lon;timestamp;P1;durP1;ratioP1;P2;durP2;ratioP2
67640;SDS011;54434;50.096;20.082;2023-10-13T00:01:27;19.30;;;9.40;;
67640;SDS011;54434;50.096;20.082;2023-10-13T00:04:03;18.40;;;9.30;;
67640;SDS011;54434;50.096;20.082;2023-10-13T00:06:40;18.50;;;9.80;;
67640;SDS011;54434;50.096;20.082;2023-10-13T00:09:19;20.50;;;9.60;;
67640;SDS011;54434;50.096;20.082;2023-10-13T00:11:59;20.30;;;8.90;;
67640;SDS011;54434;50.096;20.082;2023-10-13T00:14:37;18.50;;;10.30;;
67640;SDS011;54434;50.096;20.082;2023-10-13T00:17:17;18.90;;;9.70;;
67640;SDS011;54434;50.096;20.082;2023-10-13T00:19:54;16.40;;;9.90;;
67640;SDS011;54434;50.096;20.082;2023-10-13T00:22:33;18.30;;;9.20;;
67640;SDS011;54434;50.096;20.082;2023-10-13T00:25:14;18.40;;;9.70;;
67640;SDS011;54434;50.096;20.082;2023-10-13T00:27:59;20.60;;;9.80;;
67640;SDS011;54434;50.096;20.082;2023-10-13T00:30:36;25.50;;;10.00;;
67640;SDS011;54434;50.096;20.082;2023-10-13T00:33:15;18.40;;;9.80;;
67640;SDS011;54434;50.096;20.082;2023-10-13T00:35:54;20.30;;;9.40;;
67640;SDS011;54434;50.096;20.082;2023-10-13T00:38:31;22.60;;;9.70;;
67640;SDS011;54434;50.096;20.082;2023-10-13T00:41:08;19.60;;;9.70;;
67640;SDS011;54434;50.096;20.082;2023-10-13T00:43:49;23.50;;;10.00;;
67640;SDS011;54434;50.096;20.082;2023-10-13T00:46:40;22.90;;;10.70;;
67640;SDS011;54434;50.096;20.082;2023-10-13T00:49:18;23.50;;;10.40;;
67640;SDS011;54434;50.096;20.082;2023-10-13T00:51:55;18.50;;;10.20;;
67640;SDS011;54434;50.096;20.082;2023-10-13T00:54:32;19.50;;;10.70;;
67640;SDS011;54434;50.096;20.082;2023-10-13T00:57:10;22.50;;;10.70;;
67640;SDS011;54434;50.096;20.082;2023-10-13T01:00:00;19.70;;;10.60;;
67640;SDS011;54434;50.096;20.082;2023-10-13T01:02:51;23.30;;;11.70;;
67640;SDS011;54434;50.096;20.082;2023-10-13T01:05:31;18.80;;;10.30;;
67640;SDS011;54434;50.096;20.082;2023-10-13T01:08:08;17.60;;;10.20;;
67640;SDS011;54434;50.096;20.082;2023-10-13T01:10:46;20.50;;;10.30;;
67640;SDS011;54434;50.096;20.082;2023-10-13T01:13:23;20.50;;;10.20;;
67640;SDS011;54434;50.096;20.082;2023-10-13T01:16:00;22.40;;;11.00;;
67640;SDS011;54434;50.096;20.082;2023-10-13T01:18:40;25.30;;;11.00;;
67640;SDS011;54434;50.096;20.082;2023-10-13T01:24:01;22.70;;;10.20;;
67640;SDS011;54434;50.096;20.082;2023-10-13T01:26:41;20.00;;;10.40;;
67640;SDS011;54434;50.096;20.082;2023-10-13T01:29:17;20.50;;;9.80;;
67640;SDS011;54434;50.096;20.082;2023-10-13T01:31:59;17.50;;;10.00;;
67640;SDS011;54434;50.096;20.082;2023-10-13T01:34:36;19.70;;;10.10;;
67640;SDS011;54434;50.096;20.082;2023-10-13T01:37:13;18.90;;;10.50;;
67640;SDS011;54434;50.096;20.082;2023-10-13T01:39:53;21.10;;;10.50;;
67640;SDS011;54434;50.096;20.082;2023-10-13T01:42:29;22.60;;;11.20;;
67640;SDS011;54434;50.096;20.082;2023-10-13T01:45:07;20.90;;;10.50;;
67640;SDS011;54434;50.096;20.082;2023-10-13T01:47:47;20.80;;;10.50;;
67640;SDS011;54434;50.096;20.082;2023-10-13T01:50:24;18.70;;;10.00;;
67640;SDS011;54434;50.096;20.082;2023-10-13T01:53:04;19.40;;;10.50;;
67640;SDS011;54434;50.096;20.082;2023-10-13T01:55:45;22.70;;;9.80;;
67640;SDS011;54434;50.096;20.082;2023-10-13T01:58:24;23.70;;;10.30;;
67640;SDS011;54434;50.096;20.082;2023-10-13T02:01:02;19.80;;;10.50;;
67640;SDS011;54434;50.096;20.082;2023-10-13T02:03:40;22.40;;;10.00;;
67640;SDS011;54434;50.096;20.082;2023-10-13T02:06:21;18.70;;;10.50;;
67640;SDS011;54434;50.096;20.082;2023-10-13T02:08:58;22.60;;;11.20;;
67640;SDS011;54434;50.096;20.082;2023-10-13T02:11:45;20.40;;;10.60;;
67640;SDS011;54434;50.096;20.082;2023-10-13T02:14:27;19.90;;;11.20;;
67640;SDS011;54434;50.096;20.082;2023-10-13T02:17:06;19.00;;;10.80;;
67640;SDS011;54434;50.096;20.082;2023-10-13T02:19:50;18.00;;;10.70;;
67640;SDS011;54434;50.096;20.082;2023-10-13T02:22:27;19.70;;;11.30;;
67640;SDS011;54434;50.096;20.082;2023-10-13T02:25:06;25.40;;;12.40;;
67640;SDS011;54434;50.096;20.082;2023-10-13T02:27:52;25.70;;;11.80;;
67640;SDS011;54434;50.096;20.082;2023-10-13T02:30:32;21.60;;;11.60;;
67640;SDS011;54434;50.096;20.082;2023-10-13T02:33:18;18.60;;;11.30;;
67640;SDS011;54434;50.096;20.082;2023-10-13T02:35:56;21.60;;;11.60;;
67640;SDS011;54434;50.096;20.082;2023-10-13T02:38:33;23.40;;;12.20;;
67640;SDS011;54434;50.096;20.082;2023-10-13T02:41:20;22.20;;;11.30;;
67640;SDS011;54434;50.096;20.082;2023-10-13T02:44:01;19.70;;;11.30;;
67640;SDS011;54434;50.096;20.082;2023-10-13T02:46:39;22.00;;;11.60;;
67640;SDS011;54434;50.096;20.082;2023-10-13T02:49:16;23.80;;;12.60;;
67640;SDS011;54434;50.096;20.082;2023-10-13T02:51:53;20.00;;;12.20;;
67640;SDS011;54434;50.096;20.082;2023-10-13T02:54:32;20.20;;;11.20;;
67640;SDS011;54434;50.096;20.082;2023-10-13T02:57:13;22.50;;;12.10;;
67640;SDS011;54434;50.096;20.082;2023-10-13T02:59:49;22.10;;;11.80;;
67640;SDS011;54434;50.096;20.082;2023-10-13T03:02:45;21.30;;;10.60;;
67640;SDS011;54434;50.096;20.082;2023-10-13T03:05:35;21.80;;;11.60;;
67640;SDS011;54434;50.096;20.082;2023-10-13T03:08:12;21.50;;;11.60;;
67640;SDS011;54434;50.096;20.082;2023-10-13T03:11:00;23.10;;;12.30;;
67640;SDS011;54434;50.096;20.082;2023-10-13T03:13:39;24.20;;;11.50;;
67640;SDS011;54434;50.096;20.082;2023-10-13T03:16:18;19.90;;;11.20;;
67640;SDS011;54434;50.096;20.082;2023-10-13T03:18:55;19.80;;;12.20;;
67640;SDS011;54434;50.096;20.082;2023-10-13T03:21:33;18.40;;;11.00;;
67640;SDS011;54434;50.096;20.082;2023-10-13T03:24:11;25.50;;;11.70;;
67640;SDS011;54434;50.096;20.082;2023-10-13T03:26:47;25.40;;;11.80;;
67640;SDS011;54434;50.096;20.082;2023-10-13T03:29:25;24.70;;;12.60;;
67640;SDS011;54434;50.096;20.082;2023-10-13T03:32:04;23.70;;;11.70;;
67640;SDS011;54434;50.096;20.082;2023-10-13T03:34:46;24.70;;;12.90;;
67640;SDS011;54434;50.096;20.082;2023-10-13T03:37:44;29.80;;;14.10;;
67640;SDS011;54434;50.096;20.082;2023-10-13T03:40:21;29.10;;;15.70;;
67640;SDS011;54434;50.096;20.082;2023-10-13T03:43:11;31.10;;;16.00;;
67640;SDS011;54434;50.096;20.082;2023-10-13T03:45:50;29.00;;;15.40;;
67640;SDS011;54434;50.096;20.082;2023-10-13T03:48:35;28.10;;;14.80;;
67640;SDS011;54434;50.096;20.082;2023-10-13T03:51:25;29.00;;;16.20;;
67640;SDS011;54434;50.096;20.082;2023-10-13T03:54:05;29.90;;;14.90;;
67640;SDS011;54434;50.096;20.082;2023-10-13T03:56:43;26.20;;;14.80;;
67640;SDS011;54434;50.096;20.082;2023-10-13T03:59:20;27.50;;;15.00;;
67640;SDS011;54434;50.096;20.082;2023-10-13T04:01:57;31.20;;;15.50;;
67640;SDS011;54434;50.096;20.082;2023-10-13T04:04:36;29.70;;;16.50;;
67640;SDS011;54434;50.096;20.082;2023-10-13T04:07:22;26.70;;;15.20;;
67640;SDS011;54434;50.096;20.082;2023-10-13T04:10:15;30.40;;;17.30;;
67640;SDS011;54434;50.096;20.082;2023-10-13T04:13:09;31.30;;;16.40;;
67640;SDS011;54434;50.096;20.082;2023-10-13T04:16:04;28.70;;;14.90;;
67640;SDS011;54434;50.096;20.082;2023-10-13T04:19:09;27.30;;;15.20;;
67640;SDS011;54434;50.096;20.082;2023-10-13T04:21:56;29.00;;;15.90;;
67640;SDS011;54434;50.096;20.082;2023-10-13T04:24:33;164.00;;;91.80;;
67640;SDS011;54434;50.096;20.082;2023-10-13T04:27:28;142.40;;;69.50;;
67640;SDS011;54434;50.096;20.082;2023-10-13T04:30:18;40.40;;;20.90;;
67640;SDS011;54434;50.096;20.082;2023-10-13T04:33:01;32.70;;;16.70;;
67640;SDS011;54434;50.096;20.082;2023-10-13T04:35:50;30.60;;;16.00;;
67640;SDS011;54434;50.096;20.082;2023-10-13T04:38:32;28.20;;;15.10;;
67640;SDS011;54434;50.096;20.082;2023-10-13T04:41:30;30.70;;;15.20;;
67640;SDS011;54434;50.096;20.082;2023-10-13T04:44:18;28.70;;;14.10;;
67640;SDS011;54434;50.096;20.082;2023-10-13T04:47:21;31.60;;;15.60;;
67640;SDS011;54434;50.096;20.082;2023-10-13T04:50:03;58.80;;;31.90;;
67640;SDS011;54434;50.096;20.082;2023-10-13T04:52:55;43.70;;;20.90;;
67640;SDS011;54434;50.096;20.082;2023-10-13T04:55:50;34.70;;;16.30;;
67640;SDS011;54434;50.096;20.082;2023-10-13T04:58:41;28.90;;;16.80;;
67640;SDS011;54434;50.096;20.082;2023-10-13T05:01:32;35.60;;;19.00;;
67640;SDS011;54434;50.096;20.082;2023-10-13T05:04:28;25.70;;;14.30;;
67640;SDS011;54434;50.096;20.082;2023-10-13T05:07:12;25.00;;;13.60;;
67640;SDS011;54434;50.096;20.082;2023-10-13T05:10:08;60.10;;;32.70;;
67640;SDS011;54434;50.096;20.082;2023-10-13T05:13:02;104.90;;;49.30;;
67640;SDS011;54434;50.096;20.082;2023-10-13T05:16:08;31.30;;;18.00;;
67640;SDS011;54434;50.096;20.082;2023-10-13T05:19:03;26.70;;;15.20;;
67640;SDS011;54434;50.096;20.082;2023-10-13T05:21:57;23.60;;;14.30;;
67640;SDS011;54434;50.096;20.082;2023-10-13T05:24:51;26.70;;;14.90;;
67640;SDS011;54434;50.096;20.082;2023-10-13T05:27:56;25.20;;;13.60;;
67640;SDS011;54434;50.096;20.082;2023-10-13T05:31:07;22.80;;;13.90;;
67640;SDS011;54434;50.096;20.082;2023-10-13T05:34:01;29.20;;;14.20;;
67640;SDS011;54434;50.096;20.082;2023-10-13T05:36:56;25.50;;;14.90;;
67640;SDS011;54434;50.096;20.082;2023-10-13T05:39:58;27.20;;;14.70;;
67640;SDS011;54434;50.096;20.082;2023-10-13T05:42:52;25.70;;;14.50;;
67640;SDS011;54434;50.096;20.082;2023-10-13T05:45:46;30.40;;;15.40;;
67640;SDS011;54434;50.096;20.082;2023-10-13T05:48:51;32.80;;;14.50;;
67640;SDS011;54434;50.096;20.082;2023-10-13T05:51:44;30.80;;;15.60;;
67640;SDS011;54434;50.096;20.082;2023-10-13T05:54:32;28.90;;;15.20;;
67640;SDS011;54434;50.096;20.082;2023-10-13T05:57:25;27.60;;;15.00;;
67640;SDS011;54434;50.096;20.082;2023-10-13T06:00:20;24.40;;;14.10;;
67640;SDS011;54434;50.096;20.082;2023-10-13T06:03:14;26.80;;;15.10;;
67640;SDS011;54434;50.096;20.082;2023-10-13T06:06:10;30.20;;;15.10;;
67640;SDS011;54434;50.096;20.082;2023-10-13T06:09:05;29.20;;;16.10;;
67640;SDS011;54434;50.096;20.082;2023-10-13T06:12:02;31.60;;;15.90;;
67640;SDS011;54434;50.096;20.082;2023-10-13T06:14:57;27.40;;;14.90;;
67640;SDS011;54434;50.096;20.082;2023-10-13T06:17:52;33.40;;;15.00;;
67640;SDS011;54434;50.096;20.082;2023-10-13T06:20:48;31.60;;;15.40;;
67640;SDS011;54434;50.096;20.082;2023-10-13T06:23:42;27.40;;;14.70;;
67640;SDS011;54434;50.096;20.082;2023-10-13T06:26:37;29.80;;;15.20;;
67640;SDS011;54434;50.096;20.082;2023-10-13T06:29:31;28.10;;;14.90;;
67640;SDS011;54434;50.096;20.082;2023-10-13T06:32:08;29.20;;;14.50;;
67640;SDS011;54434;50.096;20.082;2023-10-13T06:34:47;26.40;;;14.60;;
67640;SDS011;54434;50.096;20.082;2023-10-13T06:37:26;28.80;;;14.30;;
67640;SDS011;54434;50.096;20.082;2023-10-13T06:40:12;23.90;;;14.30;;
67640;SDS011;54434;50.096;20.082;2023-10-13T06:43:00;30.00;;;13.90;;
67640;SDS011;54434;50.096;20.082;2023-10-13T06:45:51;27.00;;;13.70;;
67640;SDS011;54434;50.096;20.082;2023-10-13T06:48:34;24.70;;;13.70;;
67640;SDS011;54434;50.096;20.082;2023-10-13T06:51:13;26.70;;;13.80;;
67640;SDS011;54434;50.096;20.082;2023-10-13T06:53:54;28.00;;;13.00;;
67640;SDS011;54434;50.096;20.082;2023-10-13T06:56:31;26.30;;;14.00;;
67640;SDS011;54434;50.096;20.082;2023-10-13T06:59:13;27.20;;;14.00;;
67640;SDS011;54434;50.096;20.082;2023-10-13T07:01:49;29.90;;;15.10;;
67640;SDS011;54434;50.096;20.082;2023-10-13T07:04:26;29.20;;;14.70;;
67640;SDS011;54434;50.096;20.082;2023-10-13T07:07:02;31.10;;;14.60;;
67640;SDS011;54434;50.096;20.082;2023-10-13T07:09:39;34.70;;;15.60;;
67640;SDS011;54434;50.096;20.082;2023-10-13T07:12:23;40.30;;;19.60;;
67640;SDS011;54434;50.096;20.082;2023-10-13T07:15:04;39.00;;;21.20;;
67640;SDS011;54434;50.096;20.082;2023-10-13T07:17:55;48.60;;;29.00;;
67640;SDS011;54434;50.096;20.082;2023-10-13T07:20:33;55.40;;;32.00;;
67640;SDS011;54434;50.096;20.082;2023-10-13T07:23:10;66.30;;;34.50;;
67640;SDS011;54434;50.096;20.082;2023-10-13T07:25:57;57.00;;;34.50;;
67640;SDS011;54434;50.096;20.082;2023-10-13T07:28:36;57.80;;;34.60;;
67640;SDS011;54434;50.096;20.082;2023-10-13T07:31:17;70.30;;;37.30;;
67640;SDS011;54434;50.096;20.082;2023-10-13T07:33:54;62.40;;;36.80;;
67640;SDS011;54434;50.096;20.082;2023-10-13T07:36:38;72.20;;;42.10;;
67640;SDS011;54434;50.096;20.082;2023-10-13T07:39:16;76.50;;;44.70;;
67640;SDS011;54434;50.096;20.082;2023-10-13T07:41:57;77.50;;;44.90;;
67640;SDS011;54434;50.096;20.082;2023-10-13T07:44:39;71.00;;;41.80;;
67640;SDS011;54434;50.096;20.082;2023-10-13T07:47:20;71.40;;;43.10;;
67640;SDS011;54434;50.096;20.082;2023-10-13T07:49:58;69.30;;;41.80;;
67640;SDS011;54434;50.096;20.082;2023-10-13T07:55:32;56.90;;;34.80;;
67640;SDS011;54434;50.096;20.082;2023-10-13T07:58:12;68.40;;;37.80;;
67640;SDS011;54434;50.096;20.082;2023-10-13T08:00:49;39.70;;;25.10;;
67640;SDS011;54434;50.096;20.082;2023-10-13T08:03:40;33.40;;;16.10;;
67640;SDS011;54434;50.096;20.082;2023-10-13T08:06:19;18.30;;;9.80;;
67640;SDS011;54434;50.096;20.082;2023-10-13T08:09:02;18.30;;;9.00;;
67640;SDS011;54434;50.096;20.082;2023-10-13T08:11:42;19.40;;;7.50;;
67640;SDS011;54434;50.096;20.082;2023-10-13T08:14:18;15.30;;;7.40;;
67640;SDS011;54434;50.096;20.082;2023-10-13T08:19:36;28.40;;;10.30;;
67640;SDS011;54434;50.096;20.082;2023-10-13T08:22:18;30.60;;;13.50;;
67640;SDS011;54434;50.096;20.082;2023-10-13T08:25:10;30.30;;;13.90;;
67640;SDS011;54434;50.096;20.082;2023-10-13T08:27:54;20.20;;;12.00;;
67640;SDS011;54434;50.096;20.082;2023-10-13T08:31:04;30.70;;;12.40;;
67640;SDS011;54434;50.096;20.082;2023-10-13T08:33:48;28.40;;;14.10;;
67640;SDS011;54434;50.096;20.082;2023-10-13T08:36:31;42.30;;;18.10;;
67640;SDS011;54434;50.096;20.082;2023-10-13T08:39:11;43.40;;;17.50;;
67640;SDS011;54434;50.096;20.082;2023-10-13T08:42:16;46.80;;;13.80;;
67640;SDS011;54434;50.096;20.082;2023-10-13T08:44:57;43.70;;;8.80;;
67640;SDS011;54434;50.096;20.082;2023-10-13T08:47:39;52.20;;;9.10;;
67640;SDS011;54434;50.096;20.082;2023-10-13T08:50:27;34.20;;;7.30;;
67640;SDS011;54434;50.096;20.082;2023-10-13T08:53:23;32.20;;;7.20;;
67640;SDS011;54434;50.096;20.082;2023-10-13T08:56:06;35.00;;;6.70;;
67640;SDS011;54434;50.096;20.082;2023-10-13T08:58:49;22.80;;;6.20;;
67640;SDS011;54434;50.096;20.082;2023-10-13T09:01:43;12.30;;;5.00;;
67640;SDS011;54434;50.096;20.082;2023-10-13T09:04:22;15.50;;;5.60;;
67640;SDS011;54434;50.096;20.082;2023-10-13T09:07:07;10.90;;;5.30;;
67640;SDS011;54434;50.096;20.082;2023-10-13T09:09:50;12.60;;;5.60;;
67640;SDS011;54434;50.096;20.082;2023-10-13T09:13:06;18.30;;;5.60;;
67640;SDS011;54434;50.096;20.082;2023-10-13T09:15:44;17.60;;;5.90;;
67640;SDS011;54434;50.096;20.082;2023-10-13T09:21:20;10.90;;;5.40;;
67640;SDS011;54434;50.096;20.082;2023-10-13T09:24:11;13.20;;;5.40;;
67640;SDS011;54434;50.096;20.082;2023-10-13T09:26:57;10.30;;;5.30;;
67640;SDS011;54434;50.096;20.082;2023-10-13T09:29:36;13.00;;;5.80;;
67640;SDS011;54434;50.096;20.082;2023-10-13T09:32:16;9.70;;;5.10;;
67640;SDS011;54434;50.096;20.082;2023-10-13T09:34:54;10.00;;;4.80;;
67640;SDS011;54434;50.096;20.082;2023-10-13T09:37:39;17.00;;;5.20;;
67640;SDS011;54434;50.096;20.082;2023-10-13T09:40:20;11.20;;;4.60;;
67640;SDS011;54434;50.096;20.082;2023-10-13T09:43:02;9.60;;;4.70;;
67640;SDS011;54434;50.096;20.082;2023-10-13T09:45:42;10.50;;;4.80;;
67640;SDS011;54434;50.096;20.082;2023-10-13T09:48:37;12.20;;;4.80;;
67640;SDS011;54434;50.096;20.082;2023-10-13T09:51:20;10.60;;;5.10;;
67640;SDS011;54434;50.096;20.082;2023-10-13T09:54:03;9.60;;;4.60;;
67640;SDS011;54434;50.096;20.082;2023-10-13T09:57:08;10.90;;;4.50;;
67640;SDS011;54434;50.096;20.082;2023-10-13T09:59:55;9.30;;;4.80;;
67640;SDS011;54434;50.096;20.082;2023-10-13T10:02:43;10.80;;;4.50;;
67640;SDS011;54434;50.096;20.082;2023-10-13T10:05:27;12.30;;;5.30;;
67640;SDS011;54434;50.096;20.082;2023-10-13T10:08:08;11.50;;;4.80;;
67640;SDS011;54434;50.096;20.082;2023-10-13T10:11:04;10.20;;;4.70;;
67640;SDS011;54434;50.096;20.082;2023-10-13T10:14:07;10.90;;;4.60;;
67640;SDS011;54434;50.096;20.082;2023-10-13T10:17:00;11.50;;;4.80;;
67640;SDS011;54434;50.096;20.082;2023-10-13T10:19:54;12.90;;;4.90;;
67640;SDS011;54434;50.096;20.082;2023-10-13T10:22:32;9.60;;;4.70;;
67640;SDS011;54434;50.096;20.082;2023-10-13T10:25:10;14.20;;;4.50;;
67640;SDS011;54434;50.096;20.082;2023-10-13T10:28:01;14.20;;;5.50;;
67640;SDS011;54434;50.096;20.082;2023-10-13T10:30:40;10.70;;;4.60;;
67640;SDS011;54434;50.096;20.082;2023-10-13T10:33:17;9.70;;;4.60;;
67640;SDS011;54434;50.096;20.082;2023-10-13T10:36:07;9.10;;;4.70;;
67640;SDS011;54434;50.096;20.082;2023-10-13T10:38:57;12.20;;;4.40;;
67640;SDS011;54434;50.096;20.082;2023-10-13T10:41:37;10.30;;;4.70;;
67640;SDS011;54434;50.096;20.082;2023-10-13T10:44:19;7.80;;;4.40;;
67640;SDS011;54434;50.096;20.082;2023-10-13T10:47:15;8.80;;;4.90;;
67640;SDS011;54434;50.096;20.082;2023-10-13T10:50:05;10.20;;;4.60;;
67640;SDS011;54434;50.096;20.082;2023-10-13T10:52:53;12.60;;;4.70;;
67640;SDS011;54434;50.096;20.082;2023-10-13T10:55:31;8.80;;;4.10;;
67640;SDS011;54434;50.096;20.082;2023-10-13T10:58:10;10.00;;;4.70;;
67640;SDS011;54434;50.096;20.082;2023-10-13T11:01:09;10.70;;;4.30;;
67640;SDS011;54434;50.096;20.082;2023-10-13T11:04:00;14.90;;;4.60;;
67640;SDS011;54434;50.096;20.082;2023-10-13T11:06:49;9.50;;;4.30;;
67640;SDS011;54434;50.096;20.082;2023-10-13T11:09:30;8.90;;;4.20;;
67640;SDS011;54434;50.096;20.082;2023-10-13T11:12:15;9.80;;;4.60;;
67640;SDS011;54434;50.096;20.082;2023-10-13T11:15:06;9.10;;;4.50;;
67640;SDS011;54434;50.096;20.082;2023-10-13T11:17:51;13.60;;;4.20;;
67640;SDS011;54434;50.096;20.082;2023-10-13T11:20:30;8.00;;;4.30;;
67640;SDS011;54434;50.096;20.082;2023-10-13T11:23:17;12.80;;;4.70;;
67640;SDS011;54434;50.096;20.082;2023-10-13T11:26:02;9.50;;;4.50;;
67640;SDS011;54434;50.096;20.082;2023-10-13T11:28:39;12.00;;;4.40;;
67640;SDS011;54434;50.096;20.082;2023-10-13T11:31:29;9.00;;;4.50;;
67640;SDS011;54434;50.096;20.082;2023-10-13T11:34:06;7.80;;;4.20;;
67640;SDS011;54434;50.096;20.082;2023-10-13T11:36:49;9.40;;;4.40;;
67640;SDS011;54434;50.096;20.082;2023-10-13T11:39:26;12.00;;;4.70;;
67640;SDS011;54434;50.096;20.082;2023-10-13T11:42:07;8.80;;;4.30;;
67640;SDS011;54434;50.096;20.082;2023-10-13T11:44:45;7.60;;;4.00;;
67640;SDS011;54434;50.096;20.082;2023-10-13T11:47:35;7.40;;;4.00;;
67640;SDS011;54434;50.096;20.082;2023-10-13T11:50:23;11.80;;;4.60;;
67640;SDS011;54434;50.096;20.082;2023-10-13T11:53:06;8.90;;;3.90;;
67640;SDS011;54434;50.096;20.082;2023-10-13T11:55:45;8.10;;;4.30;;
67640;SDS011;54434;50.096;20.082;2023-10-13T11:58:22;10.80;;;4.30;;
67640;SDS011;54434;50.096;20.082;2023-10-13T12:00:58;8.80;;;4.00;;
67640;SDS011;54434;50.096;20.082;2023-10-13T12:03:53;6.20;;;3.80;;
67640;SDS011;54434;50.096;20.082;2023-10-13T12:06:51;9.90;;;4.30;;
67640;SDS011;54434;50.096;20.082;2023-10-13T12:09:49;8.70;;;4.30;;
67640;SDS011;54434;50.096;20.082;2023-10-13T12:12:39;11.80;;;4.30;;
67640;SDS011;54434;50.096;20.082;2023-10-13T12:15:17;7.00;;;3.90;;
67640;SDS011;54434;50.096;20.082;2023-10-13T12:18:08;9.80;;;4.10;;
67640;SDS011;54434;50.096;20.082;2023-10-13T12:20:48;7.30;;;3.70;;
67640;SDS011;54434;50.096;20.082;2023-10-13T12:23:25;7.10;;;4.20;;
67640;SDS011;54434;50.096;20.082;2023-10-13T12:26:05;12.00;;;4.00;;
67640;SDS011;54434;50.096;20.082;2023-10-13T12:28:52;10.10;;;3.80;;
67640;SDS011;54434;50.096;20.082;2023-10-13T12:31:39;9.90;;;4.10;;
67640;SDS011;54434;50.096;20.082;2023-10-13T12:34:24;10.30;;;3.70;;
67640;SDS011;54434;50.096;20.082;2023-10-13T12:37:20;7.80;;;3.60;;
67640;SDS011;54434;50.096;20.082;2023-10-13T12:40:14;10.40;;;4.50;;
67640;SDS011;54434;50.096;20.082;2023-10-13T12:43:09;9.80;;;3.90;;
67640;SDS011;54434;50.096;20.082;2023-10-13T12:46:08;9.60;;;4.00;;
67640;SDS011;54434;50.096;20.082;2023-10-13T12:49:02;9.00;;;3.80;;
67640;SDS011;54434;50.096;20.082;2023-10-13T12:51:51;11.50;;;3.60;;
67640;SDS011;54434;50.096;20.082;2023-10-13T12:54:27;8.20;;;3.40;;
67640;SDS011;54434;50.096;20.082;2023-10-13T12:57:08;8.10;;;3.70;;
67640;SDS011;54434;50.096;20.082;2023-10-13T12:59:45;8.10;;;3.70;;
67640;SDS011;54434;50.096;20.082;2023-10-13T13:02:22;11.00;;;3.70;;
67640;SDS011;54434;50.096;20.082;2023-10-13T13:05:02;7.60;;;3.80;;
67640;SDS011;54434;50.096;20.082;2023-10-13T13:07:45;10.60;;;4.00;;
67640;SDS011;54434;50.096;20.082;2023-10-13T13:10:26;8.90;;;4.00;;
67640;SDS011;54434;50.096;20.082;2023-10-13T13:13:10;8.10;;;4.10;;
67640;SDS011;54434;50.096;20.082;2023-10-13T13:15:50;6.80;;;3.60;;
67640;SDS011;54434;50.096;20.082;2023-10-13T13:18:26;10.80;;;3.90;;
67640;SDS011;54434;50.096;20.082;2023-10-13T13:21:03;9.80;;;4.20;;
67640;SDS011;54434;50.096;20.082;2023-10-13T13:23:40;9.20;;;3.90;;
67640;SDS011;54434;50.096;20.082;2023-10-13T13:26:18;8.70;;;3.70;;
67640;SDS011;54434;50.096;20.082;2023-10-13T13:28:55;10.40;;;3.70;;
67640;SDS011;54434;50.096;20.082;2023-10-13T13:31:32;9.60;;;3.90;;
67640;SDS011;54434;50.096;20.082;2023-10-13T13:34:14;9.10;;;3.60;;
67640;SDS011;54434;50.096;20.082;2023-10-13T13:36:53;7.90;;;4.00;;
67640;SDS011;54434;50.096;20.082;2023-10-13T13:39:34;6.80;;;3.70;;
67640;SDS011;54434;50.096;20.082;2023-10-13T13:42:16;9.80;;;4.00;;
67640;SDS011;54434;50.096;20.082;2023-10-13T13:44:53;9.80;;;4.10;;
67640;SDS011;54434;50.096;20.082;2023-10-13T13:47:32;9.10;;;4.00;;
67640;SDS011;54434;50.096;20.082;2023-10-13T13:50:10;10.60;;;3.50;;
67640;SDS011;54434;50.096;20.082;2023-10-13T13:52:57;11.90;;;4.00;;
67640;SDS011;54434;50.096;20.082;2023-10-13T13:55:36;8.70;;;3.90;;
67640;SDS011;54434;50.096;20.082;2023-10-13T13:58:14;8.90;;;3.70;;
67640;SDS011;54434;50.096;20.082;2023-10-13T14:00:50;9.60;;;4.00;;
67640;SDS011;54434;50.096;20.082;2023-10-13T14:03:32;8.80;;;3.90;;
67640;SDS011;54434;50.096;20.082;2023-10-13T14:06:11;10.20;;;4.30;;
67640;SDS011;54434;50.096;20.082;2023-10-13T14:08:57;10.40;;;4.00;;
67640;SDS011;54434;50.096;20.082;2023-10-13T14:11:36;7.20;;;3.90;;
67640;SDS011;54434;50.096;20.082;2023-10-13T14:14:39;10.60;;;4.40;;
67640;SDS011;54434;50.096;20.082;2023-10-13T14:17:23;12.10;;;4.20;;
67640;SDS011;54434;50.096;20.082;2023-10-13T14:20:03;6.50;;;3.60;;
67640;SDS011;54434;50.096;20.082;2023-10-13T14:22:51;8.40;;;3.90;;
67640;SDS011;54434;50.096;20.082;2023-10-13T14:25:28;16.00;;;4.00;;
67640;SDS011;54434;50.096;20.082;2023-10-13T14:28:11;9.10;;;4.00;;
67640;SDS011;54434;50.096;20.082;2023-10-13T14:30:54;6.40;;;3.60;;
67640;SDS011;54434;50.096;20.082;2023-10-13T14:33:31;7.90;;;4.00;;
67640;SDS011;54434;50.096;20.082;2023-10-13T14:36:12;7.90;;;4.10;;
67640;SDS011;54434;50.096;20.082;2023-10-13T14:38:53;9.40;;;4.00;;
67640;SDS011;54434;50.096;20.082;2023-10-13T14:41:30;14.00;;;4.20;;
67640;SDS011;54434;50.096;20.082;2023-10-13T14:44:07;10.40;;;4.50;;
67640;SDS011;54434;50.096;20.082;2023-10-13T14:46:46;11.60;;;4.40;;
67640;SDS011;54434;50.096;20.082;2023-10-13T14:49:28;11.90;;;4.50;;
67640;SDS011;54434;50.096;20.082;2023-10-13T14:52:06;8.60;;;4.10;;
67640;SDS011;54434;50.096;20.082;2023-10-13T14:54:45;9.90;;;4.40;;
67640;SDS011;54434;50.096;20.082;2023-10-13T14:57:28;11.70;;;4.20;;
67640;SDS011;54434;50.096;20.082;2023-10-13T15:00:07;9.90;;;4.20;;
67640;SDS011;54434;50.096;20.082;2023-10-13T15:02:50;11.00;;;4.30;;
67640;SDS011;54434;50.096;20.082;2023-10-13T15:05:28;9.60;;;4.00;;
67640;SDS011;54434;50.096;20.082;2023-10-13T15:08:07;10.80;;;4.30;;
67640;SDS011;54434;50.096;20.082;2023-10-13T15:10:44;14.60;;;4.40;;
67640;SDS011;54434;50.096;20.082;2023-10-13T15:13:21;12.10;;;4.10;;
67640;SDS011;54434;50.096;20.082;2023-10-13T15:15:57;9.80;;;4.30;;
67640;SDS011;54434;50.096;20.082;2023-10-13T15:18:39;9.00;;;4.20;;
67640;SDS011;54434;50.096;20.082;2023-10-13T15:21:21;9.40;;;4.10;;
67640;SDS011;54434;50.096;20.082;2023-10-13T15:24:03;9.50;;;4.10;;
67640;SDS011;54434;50.096;20.082;2023-10-13T15:26:50;8.70;;;4.00;;
67640;SDS011;54434;50.096;20.082;2023-10-13T15:29:36;10.10;;;4.10;;
67640;SDS011;54434;50.096;20.082;2023-10-13T15:32:12;10.80;;;4.50;;
67640;SDS011;54434;50.096;20.082;2023-10-13T15:35:12;11.50;;;4.50;;
67640;SDS011;54434;50.096;20.082;2023-10-13T15:37:50;12.60;;;4.00;;
67640;SDS011;54434;50.096;20.082;2023-10-13T15:40:28;10.70;;;4.10;;
67640;SDS011;54434;50.096;20.082;2023-10-13T15:43:06;11.80;;;5.90;;
67640;SDS011;54434;50.096;20.082;2023-10-13T15:45:42;10.20;;;5.90;;
67640;SDS011;54434;50.096;20.082;2023-10-13T15:48:19;11.80;;;4.50;;
67640;SDS011;54434;50.096;20.082;2023-10-13T15:50:58;13.20;;;4.20;;
67640;SDS011;54434;50.096;20.082;2023-10-13T15:53:37;9.90;;;4.30;;
67640;SDS011;54434;50.096;20.082;2023-10-13T15:56:14;9.40;;;3.90;;
67640;SDS011;54434;50.096;20.082;2023-10-13T15:58:51;8.80;;;3.80;;
67640;SDS011;54434;50.096;20.082;2023-10-13T16:01:29;11.80;;;4.40;;
67640;SDS011;54434;50.096;20.082;2023-10-13T16:04:08;13.00;;;4.70;;
67640;SDS011;54434;50.096;20.082;2023-10-13T16:06:46;8.50;;;3.90;;